Date,TemperatureHighF,TemperatureAvgF,TemperatureLowF,DewpointHighF,DewpointAvgF,DewpointLowF,HumidityHigh,HumidityAvg,HumidityLow,PressureMaxIn,PressureMinIn,WindSpeedMaxMPH,WindSpeedAvgMPH,GustSpeedMaxMPH,PrecipitationSumIn
2013-1-1,32.9,23.7,15.4,30.6,19.4,11.2,93,84,76,29.26,29.06,12,7,19,0.00
2013-1-2,27.8,22.9,18.4,22.4,18.7,14.3,92,84,79,29.41,29.20,9,5,12,0.00
2013-1-3,30.2,21.8,15.0,28.7,19.2,12.3,94,90,87,29.41,29.16,12,6,16,0.00
2013-1-4,35.0,32.4,30.3,30.6,27.7,25.6,88,83,80,29.23,29.06,15,10,21,0.01
2013-1-5,38.1,32.8,30.2,31.1,27.9,24.8,87,82,74,29.49,29.23,11,3,22,0.01
2013-1-6,36.6,35.1,32.2,35.1,32.7,26.4,95,91,78,29.29,29.07,8,4,10,0.03
2013-1-7,35.0,29.9,25.3,33.2,25.9,22.5,93,85,73,29.60,29.29,10,4,14,0.00
2013-1-8,40.0,34.0,29.9,33.0,28.1,24.0,89,79,72,29.51,29.35,9,4,10,0.00
2013-1-9,48.2,38.7,32.1,39.1,31.8,24.4,84,76,67,29.52,29.12,14,7,23,0.00
2013-1-10,46.5,38.9,34.4,35.1,31.5,28.8,88,75,61,29.78,29.53,11,3,21,0.00
2013-1-11,49.6,42.8,34.7,46.9,37.5,29.4,92,82,68,29.60,29.05,19,9,26,0.08
2013-1-12,60.5,52.5,45.1,53.3,48.9,43.2,94,88,76,29.16,29.10,11,4,14,0.00
2013-1-13,68.2,56.8,49.4,60.1,53.2,47.5,98,88,75,29.13,28.88,16,5,24,0.54
2013-1-14,53.1,35.1,28.3,52.0,30.8,23.9,96,84,77,29.57,28.90,17,6,23,0.03
2013-1-15,35.2,30.4,27.6,26.8,24.5,23.0,86,79,64,29.60,29.37,5,1,6,0.00
2013-1-16,41.1,33.5,28.4,33.4,28.1,24.4,87,81,73,29.38,28.97,11,4,15,0.00
2013-1-17,35.4,24.7,16.0,30.7,19.7,13.0,92,81,73,29.39,29.02,13,6,19,0.00
2013-1-18,34.1,22.9,15.7,23.0,17.1,13.8,94,79,62,29.65,29.22,11,4,14,0.04
2013-1-19,48.8,42.3,33.9,33.1,29.4,22.2,66,60,50,29.24,28.75,10,6,25,0.01
2013-1-20,49.1,29.9,17.2,37.9,23.6,15.3,94,79,51,29.27,28.62,20,12,30,0.02
2013-1-21,23.5,18.2,11.7,20.2,15.2,7.0,92,88,77,29.26,29.07,9,4,18,0.00
2013-1-22,15.0,10.1,6.9,7.4,4.8,1.7,89,79,66,29.40,29.11,13,7,17,0.00
2013-1-23,20.8,12.1,6.8,19.1,9.6,4.0,93,90,86,29.45,29.32,8,4,14,0.00
2013-1-24,15.4,12.0,9.1,13.5,9.9,7.0,92,91,89,29.75,29.30,13,5,14,0.00
2013-1-25,14.9,12.2,8.6,13.0,10.2,6.5,93,91,90,29.73,29.31,9,4,11,0.00
2013-1-26,27.8,18.2,8.1,25.2,15.9,6.0,100,90,83,29.61,29.31,6,1,8,0.12
2013-1-27,29.3,23.0,17.8,24.8,19.6,16.1,94,87,78,29.77,29.56,8,2,12,0.07
2013-1-28,41.0,33.4,23.9,40.7,31.7,18.6,99,93,79,29.55,29.04,12,4,16,0.18
2013-1-29,57.5,41.6,32.4,55.6,41.3,32.0,100,99,93,29.24,28.88,12,4,24,0.48
2013-1-30,65.2,58.9,53.1,58.0,53.7,49.6,96,83,70,28.88,28.18,18,8,25,0.25
2013-1-31,54.3,30.2,22.6,52.9,24.9,15.8,95,81,62,28.89,28.17,19,12,36,0.15